Pasco, WA

5:18 PM PDT on September 17, 2014 (GMT -0700)
West Pasco / Island Estates | Change Station
CLOSE
Current Station
Personal Weather Station
Location: Pasco, WA
Elevation: 495 ft
Nearby Weather Stations

Elev 495 ft 46.28 °N, 119.20 °W | Updated 3 seconds ago

Clear
Clear
82.9 °F
Feels Like 82 °F
N
1.3
Wind Variable Wind from ESE
Gusts 1.3 mph

Today
High -- | Low -- °F
--% Chance of Precip.
Yesterday
High -- | Low -- °F
Precip. -- in
6:37 AM 7:03 PM
Waning Crescent, 32% visible
Pressure 29.62 in
Visibility 10.0 miles
Clouds Clear
Heat Index 82 °F
Dew Point 53 °F
Humidity 36%
Rainfall 0.00 in
Snow Depth 0 in , 0 in , 0 in
UV 2 out of 12
Pollen 5.40 out of 12
Air Quality Not available.
Flu Activity Not available.
METAR KPSC 172353Z 00000KT 10SM CLR 29/09 A2962 RMK AO2 SLP028 T02890094 10289 20228 56019

More Conditions Fewer Conditions

Pressure 29.62 in
Visibility 10.0 miles
Clouds Clear
Heat Index 82 °F
Dew Point 53 °F
Humidity 36%
Rainfall 0.00 in
Snow Depth 0 in , 0 in , 0 in
UV 2 out of 12
Pollen 5.40 out of 12
Air Quality Not available.
Flu Activity Not available.
METAR KPSC 172353Z 00000KT 10SM CLR 29/09 A2962 RMK AO2 SLP028 T02890094 10289 20228 56019

More Conditions Fewer Conditions

10-Day Weather Forecast

Almanac

Astronomy

Sep. 17, 2014 Rise Set
Actual Time 6:37 AM PDT 7:03 PM PDT
Civil Twilight 6:06 AM PDT 7:33 PM PDT
Nautical Twilight 5:31 AM PDT 8:09 PM PDT
Astronomical Twilight 4:54 AM PDT 8:46 PM PDT
Moon 12:26 AM PDT (9/17) 3:30 PM PDT (9/17)
Length of Visible Light 13h 26m
Length of Day
12h 26m
Tomorrow will be 3m 14s shorter.
Waning Crescent, 32% of the Moon is Illuminated
Today
Waning Crescent
Sep 24
New
Oct 1
First Quarter
Oct 8
Full
Oct 15
Last Quarter

Today's Extremes

State Highs State Lows

Community

WunderPhotos

Upload Photos

1,754,205 photos uploaded!

Nearby

Snow Depth

Station Depth Elevation
Pope Ridge 0 in 3540 ft
Grouse Camp 0 in 5380 ft
Wells Creek 0 in 4200 ft
Surprise Lakes 0 in 4250 ft
Stevens Pass 0 in 4070 ft

Earthquake Activity

City Distance Mag. Time & Date
No recent earthquake activity has been reported nearby.
Minimum magnitude displayed is 2.5.

Coastal Water Temperatures

Place Temperature
No Stations Reporting

Nearby Weather Stations